sensor_id;sensor_type;location;lat;lon;timestamp;temperature;humidity
14188;DHT22;7175;51.978;5.330;2023-07-13T00:01:13;17.20;99.90
14188;DHT22;7175;51.978;5.330;2023-07-13T00:03:42;17.20;99.90
14188;DHT22;7175;51.978;5.330;2023-07-13T00:06:10;17.10;99.90
14188;DHT22;7175;51.978;5.330;2023-07-13T00:08:39;17.10;99.90
14188;DHT22;7175;51.978;5.330;2023-07-13T00:11:10;17.10;99.90
14188;DHT22;7175;51.978;5.330;2023-07-13T00:13:38;17.00;99.90
14188;DHT22;7175;51.978;5.330;2023-07-13T00:16:07;17.00;99.90
14188;DHT22;7175;51.978;5.330;2023-07-13T00:18:37;17.00;99.90
14188;DHT22;7175;51.978;5.330;2023-07-13T00:21:07;16.90;99.90
14188;DHT22;7175;51.978;5.330;2023-07-13T00:23:40;16.90;99.90
14188;DHT22;7175;51.978;5.330;2023-07-13T00:26:11;16.90;99.90
14188;DHT22;7175;51.978;5.330;2023-07-13T00:28:40;16.80;99.90
14188;DHT22;7175;51.978;5.330;2023-07-13T00:31:11;16.80;99.90
14188;DHT22;7175;51.978;5.330;2023-07-13T00:33:42;16.80;99.90
14188;DHT22;7175;51.978;5.330;2023-07-13T00:36:10;16.90;99.90
14188;DHT22;7175;51.978;5.330;2023-07-13T00:38:39;16.80;99.90
14188;DHT22;7175;51.978;5.330;2023-07-13T00:41:08;16.80;99.90
14188;DHT22;7175;51.978;5.330;2023-07-13T00:43:38;16.80;99.90
14188;DHT22;7175;51.978;5.330;2023-07-13T00:46:25;16.70;99.90
14188;DHT22;7175;51.978;5.330;2023-07-13T00:48:56;16.70;99.90
14188;DHT22;7175;51.978;5.330;2023-07-13T00:51:30;16.70;99.90
14188;DHT22;7175;51.978;5.330;2023-07-13T00:54:01;16.70;99.90
14188;DHT22;7175;51.978;5.330;2023-07-13T00:56:33;16.60;99.90
14188;DHT22;7175;51.978;5.330;2023-07-13T00:59:06;16.60;99.90
14188;DHT22;7175;51.978;5.330;2023-07-13T01:01:35;16.60;99.90
14188;DHT22;7175;51.978;5.330;2023-07-13T01:04:04;16.60;99.90
14188;DHT22;7175;51.978;5.330;2023-07-13T01:06:35;16.50;99.90
14188;DHT22;7175;51.978;5.330;2023-07-13T01:09:04;16.40;99.90
14188;DHT22;7175;51.978;5.330;2023-07-13T01:11:35;16.40;99.90
14188;DHT22;7175;51.978;5.330;2023-07-13T01:14:05;16.30;99.90
14188;DHT22;7175;51.978;5.330;2023-07-13T01:16:34;16.20;99.90
14188;DHT22;7175;51.978;5.330;2023-07-13T01:19:14;16.20;99.90
14188;DHT22;7175;51.978;5.330;2023-07-13T01:21:52;16.20;99.90
14188;DHT22;7175;51.978;5.330;2023-07-13T01:24:20;16.10;99.90
14188;DHT22;7175;51.978;5.330;2023-07-13T01:26:48;16.10;99.90
14188;DHT22;7175;51.978;5.330;2023-07-13T01:29:16;16.10;99.90
14188;DHT22;7175;51.978;5.330;2023-07-13T01:31:45;16.00;99.90
14188;DHT22;7175;51.978;5.330;2023-07-13T01:34:14;16.10;99.90
14188;DHT22;7175;51.978;5.330;2023-07-13T01:36:43;16.10;99.90
14188;DHT22;7175;51.978;5.330;2023-07-13T01:39:16;16.00;99.90
14188;DHT22;7175;51.978;5.330;2023-07-13T01:41:45;16.00;99.90
14188;DHT22;7175;51.978;5.330;2023-07-13T01:44:13;15.90;99.90
14188;DHT22;7175;51.978;5.330;2023-07-13T01:46:41;16.00;99.90
14188;DHT22;7175;51.978;5.330;2023-07-13T01:49:13;15.90;99.90
14188;DHT22;7175;51.978;5.330;2023-07-13T01:51:42;15.90;99.90
14188;DHT22;7175;51.978;5.330;2023-07-13T01:54:10;15.90;99.90
14188;DHT22;7175;51.978;5.330;2023-07-13T01:56:42;15.80;99.90
14188;DHT22;7175;51.978;5.330;2023-07-13T01:59:12;15.80;99.90
14188;DHT22;7175;51.978;5.330;2023-07-13T02:01:40;15.80;99.90
14188;DHT22;7175;51.978;5.330;2023-07-13T02:04:09;15.80;99.90
14188;DHT22;7175;51.978;5.330;2023-07-13T02:06:37;15.80;99.90
14188;DHT22;7175;51.978;5.330;2023-07-13T02:09:06;15.70;99.90
14188;DHT22;7175;51.978;5.330;2023-07-13T02:11:34;15.70;99.90
14188;DHT22;7175;51.978;5.330;2023-07-13T02:14:05;15.70;99.90
14188;DHT22;7175;51.978;5.330;2023-07-13T02:16:33;15.70;99.90
14188;DHT22;7175;51.978;5.330;2023-07-13T02:19:03;15.70;99.90
14188;DHT22;7175;51.978;5.330;2023-07-13T02:21:34;15.70;99.90
14188;DHT22;7175;51.978;5.330;2023-07-13T02:24:03;15.60;99.90
14188;DHT22;7175;51.978;5.330;2023-07-13T02:26:32;15.60;99.90
14188;DHT22;7175;51.978;5.330;2023-07-13T02:29:04;15.70;99.90
14188;DHT22;7175;51.978;5.330;2023-07-13T02:31:36;15.70;99.90
14188;DHT22;7175;51.978;5.330;2023-07-13T02:34:07;15.70;99.90
14188;DHT22;7175;51.978;5.330;2023-07-13T02:36:35;15.70;99.90
14188;DHT22;7175;51.978;5.330;2023-07-13T02:39:05;15.70;99.90
14188;DHT22;7175;51.978;5.330;2023-07-13T02:41:33;15.70;99.90
14188;DHT22;7175;51.978;5.330;2023-07-13T02:44:04;15.60;99.90
14188;DHT22;7175;51.978;5.330;2023-07-13T02:46:36;15.70;99.90
14188;DHT22;7175;51.978;5.330;2023-07-13T02:49:05;15.60;99.90
14188;DHT22;7175;51.978;5.330;2023-07-13T02:51:33;15.60;99.90
14188;DHT22;7175;51.978;5.330;2023-07-13T02:54:03;15.60;99.90
14188;DHT22;7175;51.978;5.330;2023-07-13T02:56:32;15.60;99.90
14188;DHT22;7175;51.978;5.330;2023-07-13T02:59:03;15.60;99.90
14188;DHT22;7175;51.978;5.330;2023-07-13T03:01:31;15.50;99.90
14188;DHT22;7175;51.978;5.330;2023-07-13T03:04:03;15.50;99.90
14188;DHT22;7175;51.978;5.330;2023-07-13T03:06:31;15.50;99.90
14188;DHT22;7175;51.978;5.330;2023-07-13T03:09:02;15.50;99.90
14188;DHT22;7175;51.978;5.330;2023-07-13T03:11:31;15.50;99.90
14188;DHT22;7175;51.978;5.330;2023-07-13T03:13:59;15.40;99.90
14188;DHT22;7175;51.978;5.330;2023-07-13T03:16:29;15.50;99.90
14188;DHT22;7175;51.978;5.330;2023-07-13T03:18:57;15.40;99.90
14188;DHT22;7175;51.978;5.330;2023-07-13T03:21:28;15.40;99.90
14188;DHT22;7175;51.978;5.330;2023-07-13T03:23:58;15.40;99.90
14188;DHT22;7175;51.978;5.330;2023-07-13T03:26:27;15.40;99.90
14188;DHT22;7175;51.978;5.330;2023-07-13T03:28:55;15.40;99.90
14188;DHT22;7175;51.978;5.330;2023-07-13T03:31:25;15.30;99.90
14188;DHT22;7175;51.978;5.330;2023-07-13T03:33:56;15.30;99.90
14188;DHT22;7175;51.978;5.330;2023-07-13T03:36:27;15.20;99.90
14188;DHT22;7175;51.978;5.330;2023-07-13T03:38:58;15.20;99.90
14188;DHT22;7175;51.978;5.330;2023-07-13T03:41:27;15.20;99.90
14188;DHT22;7175;51.978;5.330;2023-07-13T03:43:55;15.20;99.90
14188;DHT22;7175;51.978;5.330;2023-07-13T03:46:23;15.20;99.90
14188;DHT22;7175;51.978;5.330;2023-07-13T03:48:58;15.10;99.90
14188;DHT22;7175;51.978;5.330;2023-07-13T03:51:27;15.20;99.90
14188;DHT22;7175;51.978;5.330;2023-07-13T03:53:55;15.20;99.90
14188;DHT22;7175;51.978;5.330;2023-07-13T03:56:24;15.20;99.90
14188;DHT22;7175;51.978;5.330;2023-07-13T03:58:53;15.20;99.90
14188;DHT22;7175;51.978;5.330;2023-07-13T04:01:23;15.20;99.90
14188;DHT22;7175;51.978;5.330;2023-07-13T04:03:52;15.20;99.90
14188;DHT22;7175;51.978;5.330;2023-07-13T04:06:25;15.20;99.90
14188;DHT22;7175;51.978;5.330;2023-07-13T04:08:55;15.20;99.90
14188;DHT22;7175;51.978;5.330;2023-07-13T04:11:26;15.10;99.90
14188;DHT22;7175;51.978;5.330;2023-07-13T04:13:55;15.20;99.90
14188;DHT22;7175;51.978;5.330;2023-07-13T04:16:24;15.20;99.90
14188;DHT22;7175;51.978;5.330;2023-07-13T04:18:53;15.20;99.90
14188;DHT22;7175;51.978;5.330;2023-07-13T04:21:29;15.20;99.90
14188;DHT22;7175;51.978;5.330;2023-07-13T04:23:59;15.20;99.90
14188;DHT22;7175;51.978;5.330;2023-07-13T04:26:27;15.20;99.90
14188;DHT22;7175;51.978;5.330;2023-07-13T04:28:56;15.20;99.90
14188;DHT22;7175;51.978;5.330;2023-07-13T04:31:24;15.20;99.90
14188;DHT22;7175;51.978;5.330;2023-07-13T04:33:54;15.30;99.90
14188;DHT22;7175;51.978;5.330;2023-07-13T04:36:24;15.30;99.90
14188;DHT22;7175;51.978;5.330;2023-07-13T04:38:56;15.30;99.90
14188;DHT22;7175;51.978;5.330;2023-07-13T04:41:24;15.30;99.90
14188;DHT22;7175;51.978;5.330;2023-07-13T04:43:55;15.40;99.90
14188;DHT22;7175;51.978;5.330;2023-07-13T04:46:24;15.40;99.90
14188;DHT22;7175;51.978;5.330;2023-07-13T04:48:55;15.50;99.90
14188;DHT22;7175;51.978;5.330;2023-07-13T04:51:26;15.50;99.90
14188;DHT22;7175;51.978;5.330;2023-07-13T04:53:56;15.50;99.90
14188;DHT22;7175;51.978;5.330;2023-07-13T04:56:30;15.60;99.90
14188;DHT22;7175;51.978;5.330;2023-07-13T04:58:59;15.60;99.90
14188;DHT22;7175;51.978;5.330;2023-07-13T05:01:28;15.60;99.90
14188;DHT22;7175;51.978;5.330;2023-07-13T05:03:56;15.60;99.90
14188;DHT22;7175;51.978;5.330;2023-07-13T05:06:29;15.70;99.90
14188;DHT22;7175;51.978;5.330;2023-07-13T05:09:00;15.70;99.90
14188;DHT22;7175;51.978;5.330;2023-07-13T05:11:30;15.80;99.90
14188;DHT22;7175;51.978;5.330;2023-07-13T05:14:02;15.90;99.90
14188;DHT22;7175;51.978;5.330;2023-07-13T05:16:30;15.90;99.90
14188;DHT22;7175;51.978;5.330;2023-07-13T05:19:03;16.00;99.90
14188;DHT22;7175;51.978;5.330;2023-07-13T05:21:31;16.00;99.90
14188;DHT22;7175;51.978;5.330;2023-07-13T05:24:01;16.10;99.90
14188;DHT22;7175;51.978;5.330;2023-07-13T05:26:45;16.20;99.90
14188;DHT22;7175;51.978;5.330;2023-07-13T05:29:13;16.20;99.90
14188;DHT22;7175;51.978;5.330;2023-07-13T05:31:43;16.30;99.90
14188;DHT22;7175;51.978;5.330;2023-07-13T05:34:12;16.40;99.90
14188;DHT22;7175;51.978;5.330;2023-07-13T05:36:40;16.40;99.90
14188;DHT22;7175;51.978;5.330;2023-07-13T05:39:09;16.40;99.90
14188;DHT22;7175;51.978;5.330;2023-07-13T05:41:38;16.40;99.90
14188;DHT22;7175;51.978;5.330;2023-07-13T05:44:06;16.50;99.90
14188;DHT22;7175;51.978;5.330;2023-07-13T05:46:36;16.50;99.90
14188;DHT22;7175;51.978;5.330;2023-07-13T05:49:04;16.50;99.90
14188;DHT22;7175;51.978;5.330;2023-07-13T05:51:33;16.60;99.90
14188;DHT22;7175;51.978;5.330;2023-07-13T05:54:02;16.70;99.90
14188;DHT22;7175;51.978;5.330;2023-07-13T05:56:32;16.90;99.90
14188;DHT22;7175;51.978;5.330;2023-07-13T05:59:01;16.90;99.90
14188;DHT22;7175;51.978;5.330;2023-07-13T06:01:32;17.10;99.90
14188;DHT22;7175;51.978;5.330;2023-07-13T06:04:04;17.20;99.90
14188;DHT22;7175;51.978;5.330;2023-07-13T06:06:32;17.20;99.90
14188;DHT22;7175;51.978;5.330;2023-07-13T06:09:02;17.30;99.90
14188;DHT22;7175;51.978;5.330;2023-07-13T06:11:32;17.70;99.90
14188;DHT22;7175;51.978;5.330;2023-07-13T06:14:01;17.60;99.90
14188;DHT22;7175;51.978;5.330;2023-07-13T06:16:31;18.20;99.90
14188;DHT22;7175;51.978;5.330;2023-07-13T06:19:00;17.80;99.90
14188;DHT22;7175;51.978;5.330;2023-07-13T06:21:29;17.70;99.90
14188;DHT22;7175;51.978;5.330;2023-07-13T06:23:57;17.70;99.90
14188;DHT22;7175;51.978;5.330;2023-07-13T06:26:26;17.60;99.90
14188;DHT22;7175;51.978;5.330;2023-07-13T06:28:56;17.60;99.90
14188;DHT22;7175;51.978;5.330;2023-07-13T06:31:24;17.80;99.90
14188;DHT22;7175;51.978;5.330;2023-07-13T06:33:53;18.10;99.90
14188;DHT22;7175;51.978;5.330;2023-07-13T06:36:23;18.00;99.90
14188;DHT22;7175;51.978;5.330;2023-07-13T06:38:52;18.20;99.90
14188;DHT22;7175;51.978;5.330;2023-07-13T06:41:23;18.00;99.90
14188;DHT22;7175;51.978;5.330;2023-07-13T06:43:53;17.90;99.90
14188;DHT22;7175;51.978;5.330;2023-07-13T06:46:23;18.00;99.90
14188;DHT22;7175;51.978;5.330;2023-07-13T06:48:51;18.10;99.90
14188;DHT22;7175;51.978;5.330;2023-07-13T06:53:46;17.90;99.90
14188;DHT22;7175;51.978;5.330;2023-07-13T06:56:14;17.90;99.90
14188;DHT22;7175;51.978;5.330;2023-07-13T06:58:42;18.10;99.90
14188;DHT22;7175;51.978;5.330;2023-07-13T07:01:11;18.30;99.90
14188;DHT22;7175;51.978;5.330;2023-07-13T07:03:40;18.20;99.90
14188;DHT22;7175;51.978;5.330;2023-07-13T07:06:14;18.30;99.90
14188;DHT22;7175;51.978;5.330;2023-07-13T07:08:42;18.30;99.90
14188;DHT22;7175;51.978;5.330;2023-07-13T07:11:13;18.30;99.90
14188;DHT22;7175;51.978;5.330;2023-07-13T07:13:42;18.50;99.90
14188;DHT22;7175;51.978;5.330;2023-07-13T07:16:10;18.50;99.90
14188;DHT22;7175;51.978;5.330;2023-07-13T07:18:38;18.60;99.90
14188;DHT22;7175;51.978;5.330;2023-07-13T07:21:07;18.70;99.90
14188;DHT22;7175;51.978;5.330;2023-07-13T07:23:36;19.00;99.90
14188;DHT22;7175;51.978;5.330;2023-07-13T07:26:04;19.00;99.90
14188;DHT22;7175;51.978;5.330;2023-07-13T07:28:32;19.30;99.90
14188;DHT22;7175;51.978;5.330;2023-07-13T07:31:03;19.40;99.90
14188;DHT22;7175;51.978;5.330;2023-07-13T07:33:34;19.30;99.90
14188;DHT22;7175;51.978;5.330;2023-07-13T07:36:02;19.40;99.90
14188;DHT22;7175;51.978;5.330;2023-07-13T07:38:34;19.40;99.90
14188;DHT22;7175;51.978;5.330;2023-07-13T07:41:03;19.20;99.90
14188;DHT22;7175;51.978;5.330;2023-07-13T07:43:35;19.10;99.90
14188;DHT22;7175;51.978;5.330;2023-07-13T07:46:03;19.10;99.90
14188;DHT22;7175;51.978;5.330;2023-07-13T07:48:31;19.00;99.90
14188;DHT22;7175;51.978;5.330;2023-07-13T07:50:59;18.90;99.90
14188;DHT22;7175;51.978;5.330;2023-07-13T07:53:27;18.90;99.90
14188;DHT22;7175;51.978;5.330;2023-07-13T07:56:02;19.00;99.90
14188;DHT22;7175;51.978;5.330;2023-07-13T07:58:37;19.00;99.90
14188;DHT22;7175;51.978;5.330;2023-07-13T08:01:11;19.20;99.90
14188;DHT22;7175;51.978;5.330;2023-07-13T08:03:42;19.40;99.90
14188;DHT22;7175;51.978;5.330;2023-07-13T08:06:14;19.70;99.90
14188;DHT22;7175;51.978;5.330;2023-07-13T08:09:04;19.80;99.90
14188;DHT22;7175;51.978;5.330;2023-07-13T08:11:34;20.10;99.90
14188;DHT22;7175;51.978;5.330;2023-07-13T08:14:06;20.90;99.90
14188;DHT22;7175;51.978;5.330;2023-07-13T08:16:35;21.20;99.90
14188;DHT22;7175;51.978;5.330;2023-07-13T08:19:04;21.00;99.90
14188;DHT22;7175;51.978;5.330;2023-07-13T08:21:34;21.00;99.90
14188;DHT22;7175;51.978;5.330;2023-07-13T08:24:08;20.80;99.90
14188;DHT22;7175;51.978;5.330;2023-07-13T08:26:39;20.50;99.90
14188;DHT22;7175;51.978;5.330;2023-07-13T08:29:08;20.10;99.90
14188;DHT22;7175;51.978;5.330;2023-07-13T08:31:37;19.70;99.90
14188;DHT22;7175;51.978;5.330;2023-07-13T08:34:06;19.50;99.90
14188;DHT22;7175;51.978;5.330;2023-07-13T08:36:36;19.40;99.90
14188;DHT22;7175;51.978;5.330;2023-07-13T08:39:10;19.30;99.90
14188;DHT22;7175;51.978;5.330;2023-07-13T08:41:43;19.30;99.90
14188;DHT22;7175;51.978;5.330;2023-07-13T08:44:20;19.10;99.90
14188;DHT22;7175;51.978;5.330;2023-07-13T08:46:53;19.10;99.90
14188;DHT22;7175;51.978;5.330;2023-07-13T08:49:22;19.10;99.90
14188;DHT22;7175;51.978;5.330;2023-07-13T08:51:57;18.90;99.90
14188;DHT22;7175;51.978;5.330;2023-07-13T08:54:32;18.90;99.90
14188;DHT22;7175;51.978;5.330;2023-07-13T08:57:12;18.80;99.90
14188;DHT22;7175;51.978;5.330;2023-07-13T08:59:42;18.70;99.90
14188;DHT22;7175;51.978;5.330;2023-07-13T09:02:25;18.70;99.90
14188;DHT22;7175;51.978;5.330;2023-07-13T09:05:00;18.70;99.90
14188;DHT22;7175;51.978;5.330;2023-07-13T09:07:42;18.80;99.90
14188;DHT22;7175;51.978;5.330;2023-07-13T09:10:19;19.20;99.90
14188;DHT22;7175;51.978;5.330;2023-07-13T09:13:01;19.90;99.90
14188;DHT22;7175;51.978;5.330;2023-07-13T09:15:38;20.50;99.90
14188;DHT22;7175;51.978;5.330;2023-07-13T09:18:16;20.60;99.90
14188;DHT22;7175;51.978;5.330;2023-07-13T09:21:03;20.60;99.90
14188;DHT22;7175;51.978;5.330;2023-07-13T09:23:35;21.40;99.90
14188;DHT22;7175;51.978;5.330;2023-07-13T09:26:06;21.70;99.90
14188;DHT22;7175;51.978;5.330;2023-07-13T09:28:44;21.70;99.90
14188;DHT22;7175;51.978;5.330;2023-07-13T09:31:16;21.70;99.90
14188;DHT22;7175;51.978;5.330;2023-07-13T09:33:45;22.30;99.90
14188;DHT22;7175;51.978;5.330;2023-07-13T09:36:19;22.20;99.90
14188;DHT22;7175;51.978;5.330;2023-07-13T09:38:56;22.20;99.90
14188;DHT22;7175;51.978;5.330;2023-07-13T09:41:33;21.50;99.90
14188;DHT22;7175;51.978;5.330;2023-07-13T09:44:12;21.10;99.90
14188;DHT22;7175;51.978;5.330;2023-07-13T09:46:45;20.90;99.90
14188;DHT22;7175;51.978;5.330;2023-07-13T09:49:14;21.50;99.90
14188;DHT22;7175;51.978;5.330;2023-07-13T09:51:43;22.20;99.90
14188;DHT22;7175;51.978;5.330;2023-07-13T09:54:19;22.50;99.90
14188;DHT22;7175;51.978;5.330;2023-07-13T09:56:48;22.20;99.90
14188;DHT22;7175;51.978;5.330;2023-07-13T09:59:27;21.60;99.90
14188;DHT22;7175;51.978;5.330;2023-07-13T10:01:58;22.00;99.90
14188;DHT22;7175;51.978;5.330;2023-07-13T10:04:30;22.60;99.90
14188;DHT22;7175;51.978;5.330;2023-07-13T10:07:08;22.30;99.90
14188;DHT22;7175;51.978;5.330;2023-07-13T10:09:55;21.80;99.90
14188;DHT22;7175;51.978;5.330;2023-07-13T10:12:29;21.60;99.90
14188;DHT22;7175;51.978;5.330;2023-07-13T10:15:14;21.20;99.90
14188;DHT22;7175;51.978;5.330;2023-07-13T10:17:51;20.80;99.90
14188;DHT22;7175;51.978;5.330;2023-07-13T10:20:20;20.60;99.90
14188;DHT22;7175;51.978;5.330;2023-07-13T10:22:52;21.40;99.90
14188;DHT22;7175;51.978;5.330;2023-07-13T10:25:25;22.10;99.90
14188;DHT22;7175;51.978;5.330;2023-07-13T10:27:58;21.50;99.90
14188;DHT22;7175;51.978;5.330;2023-07-13T10:30:32;20.80;99.90
14188;DHT22;7175;51.978;5.330;2023-07-13T10:33:05;20.30;99.90
14188;DHT22;7175;51.978;5.330;2023-07-13T10:35:40;19.90;99.90
14188;DHT22;7175;51.978;5.330;2023-07-13T10:38:11;19.70;99.90
14188;DHT22;7175;51.978;5.330;2023-07-13T10:40:43;20.40;99.90
14188;DHT22;7175;51.978;5.330;2023-07-13T10:43:20;21.30;99.90
14188;DHT22;7175;51.978;5.330;2023-07-13T10:45:52;22.00;99.90
14188;DHT22;7175;51.978;5.330;2023-07-13T10:48:22;21.90;99.90
14188;DHT22;7175;51.978;5.330;2023-07-13T10:50:52;21.40;99.90
14188;DHT22;7175;51.978;5.330;2023-07-13T10:53:29;21.50;99.90
14188;DHT22;7175;51.978;5.330;2023-07-13T10:56:04;22.10;99.90
14188;DHT22;7175;51.978;5.330;2023-07-13T10:58:36;22.20;99.90
14188;DHT22;7175;51.978;5.330;2023-07-13T11:01:10;22.00;99.90
14188;DHT22;7175;51.978;5.330;2023-07-13T11:03:49;22.80;99.90
14188;DHT22;7175;51.978;5.330;2023-07-13T11:06:32;23.00;99.90
14188;DHT22;7175;51.978;5.330;2023-07-13T11:09:18;22.50;99.90
14188;DHT22;7175;51.978;5.330;2023-07-13T11:11:47;22.40;99.90
14188;DHT22;7175;51.978;5.330;2023-07-13T11:14:28;22.90;99.90
14188;DHT22;7175;51.978;5.330;2023-07-13T11:16:59;22.70;99.90
14188;DHT22;7175;51.978;5.330;2023-07-13T11:19:51;23.20;99.90
14188;DHT22;7175;51.978;5.330;2023-07-13T11:22:25;23.20;99.90
14188;DHT22;7175;51.978;5.330;2023-07-13T11:25:00;23.60;99.90
14188;DHT22;7175;51.978;5.330;2023-07-13T11:27:38;23.10;99.90
14188;DHT22;7175;51.978;5.330;2023-07-13T11:30:25;22.50;99.90
14188;DHT22;7175;51.978;5.330;2023-07-13T11:33:15;23.10;99.90
14188;DHT22;7175;51.978;5.330;2023-07-13T11:35:51;23.50;99.90
14188;DHT22;7175;51.978;5.330;2023-07-13T11:38:28;23.10;99.90
14188;DHT22;7175;51.978;5.330;2023-07-13T11:41:04;23.80;99.90
14188;DHT22;7175;51.978;5.330;2023-07-13T11:43:37;24.10;99.90
14188;DHT22;7175;51.978;5.330;2023-07-13T11:46:19;23.60;99.90
14188;DHT22;7175;51.978;5.330;2023-07-13T11:48:54;23.40;99.90
14188;DHT22;7175;51.978;5.330;2023-07-13T11:51:26;24.00;99.90
14188;DHT22;7175;51.978;5.330;2023-07-13T11:54:02;23.20;99.90
14188;DHT22;7175;51.978;5.330;2023-07-13T11:56:32;22.80;99.90
14188;DHT22;7175;51.978;5.330;2023-07-13T11:59:06;23.30;99.90
14188;DHT22;7175;51.978;5.330;2023-07-13T12:01:42;22.90;99.90
14188;DHT22;7175;51.978;5.330;2023-07-13T12:04:26;22.90;99.90
14188;DHT22;7175;51.978;5.330;2023-07-13T12:07:04;22.90;99.90
14188;DHT22;7175;51.978;5.330;2023-07-13T12:09:35;22.90;99.90
14188;DHT22;7175;51.978;5.330;2023-07-13T12:12:11;22.50;99.90
14188;DHT22;7175;51.978;5.330;2023-07-13T12:14:40;23.10;99.90
14188;DHT22;7175;51.978;5.330;2023-07-13T12:17:13;23.90;99.90
14188;DHT22;7175;51.978;5.330;2023-07-13T12:19:44;24.30;99.90
14188;DHT22;7175;51.978;5.330;2023-07-13T12:22:15;24.90;99.90
14188;DHT22;7175;51.978;5.330;2023-07-13T12:24:48;25.10;99.90
14188;DHT22;7175;51.978;5.330;2023-07-13T12:27:22;24.60;99.90
14188;DHT22;7175;51.978;5.330;2023-07-13T12:29:56;24.90;99.90
14188;DHT22;7175;51.978;5.330;2023-07-13T12:32:27;25.40;99.90
14188;DHT22;7175;51.978;5.330;2023-07-13T12:35:13;24.70;99.90
14188;DHT22;7175;51.978;5.330;2023-07-13T12:37:47;24.90;99.90
14188;DHT22;7175;51.978;5.330;2023-07-13T12:40:20;25.20;99.90
14188;DHT22;7175;51.978;5.330;2023-07-13T12:42:55;25.60;99.90
14188;DHT22;7175;51.978;5.330;2023-07-13T12:45:27;26.30;99.90
14188;DHT22;7175;51.978;5.330;2023-07-13T12:47:58;26.50;99.90
14188;DHT22;7175;51.978;5.330;2023-07-13T12:50:36;26.50;99.90
14188;DHT22;7175;51.978;5.330;2023-07-13T12:53:09;26.20;99.90
14188;DHT22;7175;51.978;5.330;2023-07-13T12:55:42;25.50;99.90
14188;DHT22;7175;51.978;5.330;2023-07-13T12:58:22;26.10;99.90
14188;DHT22;7175;51.978;5.330;2023-07-13T13:00:57;26.20;99.90
14188;DHT22;7175;51.978;5.330;2023-07-13T13:03:31;25.50;99.90
14188;DHT22;7175;51.978;5.330;2023-07-13T13:06:21;25.70;99.90
14188;DHT22;7175;51.978;5.330;2023-07-13T13:08:51;26.30;99.90
14188;DHT22;7175;51.978;5.330;2023-07-13T13:11:22;26.70;99.90
14188;DHT22;7175;51.978;5.330;2023-07-13T13:13:53;26.20;99.90
14188;DHT22;7175;51.978;5.330;2023-07-13T13:16:31;25.20;99.90
14188;DHT22;7175;51.978;5.330;2023-07-13T13:19:12;25.00;99.90
14188;DHT22;7175;51.978;5.330;2023-07-13T13:21:45;24.90;99.90
14188;DHT22;7175;51.978;5.330;2023-07-13T13:24:16;25.60;99.90
14188;DHT22;7175;51.978;5.330;2023-07-13T13:26:45;26.40;99.90
14188;DHT22;7175;51.978;5.330;2023-07-13T13:29:22;26.60;99.90
14188;DHT22;7175;51.978;5.330;2023-07-13T13:31:51;26.70;99.90
14188;DHT22;7175;51.978;5.330;2023-07-13T13:34:23;26.50;99.90
14188;DHT22;7175;51.978;5.330;2023-07-13T13:36:55;26.80;99.90
14188;DHT22;7175;51.978;5.330;2023-07-13T13:39:34;27.00;99.90
14188;DHT22;7175;51.978;5.330;2023-07-13T13:42:09;25.60;99.90
14188;DHT22;7175;51.978;5.330;2023-07-13T13:44:47;25.60;99.90
14188;DHT22;7175;51.978;5.330;2023-07-13T13:47:29;25.90;99.90
14188;DHT22;7175;51.978;5.330;2023-07-13T13:49:59;26.20;99.90
14188;DHT22;7175;51.978;5.330;2023-07-13T13:52:32;26.20;99.90
14188;DHT22;7175;51.978;5.330;2023-07-13T13:55:01;25.70;99.90
14188;DHT22;7175;51.978;5.330;2023-07-13T13:57:30;25.20;99.90
14188;DHT22;7175;51.978;5.330;2023-07-13T13:59:57;25.30;99.90
14188;DHT22;7175;51.978;5.330;2023-07-13T14:02:28;25.80;99.90
14188;DHT22;7175;51.978;5.330;2023-07-13T14:04:59;26.00;99.90
14188;DHT22;7175;51.978;5.330;2023-07-13T14:07:30;26.40;99.90
14188;DHT22;7175;51.978;5.330;2023-07-13T14:09:58;26.60;99.90
14188;DHT22;7175;51.978;5.330;2023-07-13T14:12:28;26.40;99.90
14188;DHT22;7175;51.978;5.330;2023-07-13T14:14:57;26.60;99.60
14188;DHT22;7175;51.978;5.330;2023-07-13T14:17:27;27.30;98.70
14188;DHT22;7175;51.978;5.330;2023-07-13T14:19:55;26.80;98.50
14188;DHT22;7175;51.978;5.330;2023-07-13T14:22:25;26.90;98.50
14188;DHT22;7175;51.978;5.330;2023-07-13T14:24:55;27.30;98.10
14188;DHT22;7175;51.978;5.330;2023-07-13T14:27:24;27.70;98.60
14188;DHT22;7175;51.978;5.330;2023-07-13T14:29:53;27.00;98.60
14188;DHT22;7175;51.978;5.330;2023-07-13T14:32:21;26.00;98.90
14188;DHT22;7175;51.978;5.330;2023-07-13T14:34:48;26.20;99.90
14188;DHT22;7175;51.978;5.330;2023-07-13T14:37:19;26.20;99.30
14188;DHT22;7175;51.978;5.330;2023-07-13T14:39:49;26.20;98.90
14188;DHT22;7175;51.978;5.330;2023-07-13T14:42:20;25.70;98.60
14188;DHT22;7175;51.978;5.330;2023-07-13T14:44:48;25.40;99.20
14188;DHT22;7175;51.978;5.330;2023-07-13T14:47:16;25.80;99.70
14188;DHT22;7175;51.978;5.330;2023-07-13T14:49:44;26.00;98.60
14188;DHT22;7175;51.978;5.330;2023-07-13T14:52:16;25.40;99.60
14188;DHT22;7175;51.978;5.330;2023-07-13T14:54:45;25.00;99.90
14188;DHT22;7175;51.978;5.330;2023-07-13T14:57:15;25.60;99.70
14188;DHT22;7175;51.978;5.330;2023-07-13T14:59:45;26.40;99.50
14188;DHT22;7175;51.978;5.330;2023-07-13T15:02:15;26.60;99.00
14188;DHT22;7175;51.978;5.330;2023-07-13T15:04:44;25.90;98.20
14188;DHT22;7175;51.978;5.330;2023-07-13T15:07:12;26.30;97.90
14188;DHT22;7175;51.978;5.330;2023-07-13T15:09:42;26.30;98.00
14188;DHT22;7175;51.978;5.330;2023-07-13T15:12:10;26.20;98.40
14188;DHT22;7175;51.978;5.330;2023-07-13T15:14:38;26.40;99.30
14188;DHT22;7175;51.978;5.330;2023-07-13T15:17:22;26.20;97.10
14188;DHT22;7175;51.978;5.330;2023-07-13T15:19:52;25.80;98.00
14188;DHT22;7175;51.978;5.330;2023-07-13T15:22:21;25.50;99.00
14188;DHT22;7175;51.978;5.330;2023-07-13T15:24:49;25.60;98.70
14188;DHT22;7175;51.978;5.330;2023-07-13T15:27:17;25.40;98.40
14188;DHT22;7175;51.978;5.330;2023-07-13T15:29:45;25.20;98.50
14188;DHT22;7175;51.978;5.330;2023-07-13T15:32:15;25.20;98.90
14188;DHT22;7175;51.978;5.330;2023-07-13T15:34:43;25.20;98.50
14188;DHT22;7175;51.978;5.330;2023-07-13T15:37:14;25.00;98.30
14188;DHT22;7175;51.978;5.330;2023-07-13T15:39:42;24.90;99.10
14188;DHT22;7175;51.978;5.330;2023-07-13T15:42:15;25.00;98.70
14188;DHT22;7175;51.978;5.330;2023-07-13T15:44:43;24.70;98.30
14188;DHT22;7175;51.978;5.330;2023-07-13T15:47:13;24.60;99.60
14188;DHT22;7175;51.978;5.330;2023-07-13T15:49:42;24.70;99.80
14188;DHT22;7175;51.978;5.330;2023-07-13T15:52:16;24.60;99.90
14188;DHT22;7175;51.978;5.330;2023-07-13T15:54:46;24.30;99.90
14188;DHT22;7175;51.978;5.330;2023-07-13T15:57:14;24.20;99.90
14188;DHT22;7175;51.978;5.330;2023-07-13T15:59:43;24.30;99.90
14188;DHT22;7175;51.978;5.330;2023-07-13T16:02:13;24.20;99.90
14188;DHT22;7175;51.978;5.330;2023-07-13T16:04:42;24.30;99.90
14188;DHT22;7175;51.978;5.330;2023-07-13T16:07:11;24.20;99.90
14188;DHT22;7175;51.978;5.330;2023-07-13T16:09:40;23.90;99.90
14188;DHT22;7175;51.978;5.330;2023-07-13T16:12:10;24.00;99.90
14188;DHT22;7175;51.978;5.330;2023-07-13T16:14:39;24.00;99.90